sensor_id;sensor_type;location;lat;lon;timestamp;temperature;humidity
12632;DHT22;6381;45.748;12.106;2023-07-20T00:01:43;24.80;99.90
12632;DHT22;6381;45.748;12.106;2023-07-20T00:04:14;24.90;99.90
12632;DHT22;6381;45.748;12.106;2023-07-20T00:06:44;24.80;99.90
12632;DHT22;6381;45.748;12.106;2023-07-20T00:09:14;24.80;99.90
12632;DHT22;6381;45.748;12.106;2023-07-20T00:11:51;24.80;99.90
12632;DHT22;6381;45.748;12.106;2023-07-20T00:14:21;24.90;99.90
12632;DHT22;6381;45.748;12.106;2023-07-20T00:16:51;25.00;99.90
12632;DHT22;6381;45.748;12.106;2023-07-20T00:19:24;25.00;99.90
12632;DHT22;6381;45.748;12.106;2023-07-20T00:21:54;24.70;99.90
12632;DHT22;6381;45.748;12.106;2023-07-20T00:24:24;24.60;99.90
12632;DHT22;6381;45.748;12.106;2023-07-20T00:26:55;24.60;99.90
12632;DHT22;6381;45.748;12.106;2023-07-20T00:29:25;24.60;99.90
12632;DHT22;6381;45.748;12.106;2023-07-20T00:31:55;24.50;99.90
12632;DHT22;6381;45.748;12.106;2023-07-20T00:34:26;24.70;99.90
12632;DHT22;6381;45.748;12.106;2023-07-20T00:36:57;24.80;99.90
12632;DHT22;6381;45.748;12.106;2023-07-20T00:39:27;24.70;99.90
12632;DHT22;6381;45.748;12.106;2023-07-20T00:42:01;24.70;99.90
12632;DHT22;6381;45.748;12.106;2023-07-20T00:44:31;24.80;99.90
12632;DHT22;6381;45.748;12.106;2023-07-20T00:47:01;24.60;99.90
12632;DHT22;6381;45.748;12.106;2023-07-20T00:49:33;24.60;99.90
12632;DHT22;6381;45.748;12.106;2023-07-20T00:52:06;24.40;99.90
12632;DHT22;6381;45.748;12.106;2023-07-20T00:54:37;24.20;99.90
12632;DHT22;6381;45.748;12.106;2023-07-20T00:57:10;24.00;99.90
12632;DHT22;6381;45.748;12.106;2023-07-20T00:59:41;24.00;99.90
12632;DHT22;6381;45.748;12.106;2023-07-20T01:02:11;23.80;99.90
12632;DHT22;6381;45.748;12.106;2023-07-20T01:04:41;23.70;99.90
12632;DHT22;6381;45.748;12.106;2023-07-20T01:07:17;24.00;99.90
12632;DHT22;6381;45.748;12.106;2023-07-20T01:09:55;24.10;99.90
12632;DHT22;6381;45.748;12.106;2023-07-20T01:12:42;24.10;99.90
12632;DHT22;6381;45.748;12.106;2023-07-20T01:15:12;24.10;99.90
12632;DHT22;6381;45.748;12.106;2023-07-20T01:17:42;24.10;99.90
12632;DHT22;6381;45.748;12.106;2023-07-20T01:20:14;24.20;99.90
12632;DHT22;6381;45.748;12.106;2023-07-20T01:22:59;24.00;99.90
12632;DHT22;6381;45.748;12.106;2023-07-20T01:25:45;23.90;99.90
12632;DHT22;6381;45.748;12.106;2023-07-20T01:31:24;23.90;99.90
12632;DHT22;6381;45.748;12.106;2023-07-20T01:33:57;23.80;99.90
12632;DHT22;6381;45.748;12.106;2023-07-20T01:36:30;23.70;99.90
12632;DHT22;6381;45.748;12.106;2023-07-20T01:39:02;24.00;99.90
12632;DHT22;6381;45.748;12.106;2023-07-20T01:41:33;24.00;99.90
12632;DHT22;6381;45.748;12.106;2023-07-20T01:44:04;23.90;99.90
12632;DHT22;6381;45.748;12.106;2023-07-20T01:46:36;23.70;99.90
12632;DHT22;6381;45.748;12.106;2023-07-20T01:49:05;23.70;99.90
12632;DHT22;6381;45.748;12.106;2023-07-20T01:51:35;23.60;99.90
12632;DHT22;6381;45.748;12.106;2023-07-20T01:54:05;23.60;99.90
12632;DHT22;6381;45.748;12.106;2023-07-20T01:56:36;23.60;99.90
12632;DHT22;6381;45.748;12.106;2023-07-20T01:59:06;23.70;99.90
12632;DHT22;6381;45.748;12.106;2023-07-20T02:01:37;23.60;99.90
12632;DHT22;6381;45.748;12.106;2023-07-20T02:04:06;23.30;99.90
12632;DHT22;6381;45.748;12.106;2023-07-20T02:06:36;23.20;99.90
12632;DHT22;6381;45.748;12.106;2023-07-20T02:09:06;23.30;99.90
12632;DHT22;6381;45.748;12.106;2023-07-20T02:11:35;23.20;99.90
12632;DHT22;6381;45.748;12.106;2023-07-20T02:14:05;23.20;99.90
12632;DHT22;6381;45.748;12.106;2023-07-20T02:16:37;23.10;99.90
12632;DHT22;6381;45.748;12.106;2023-07-20T02:19:06;23.00;99.90
12632;DHT22;6381;45.748;12.106;2023-07-20T02:21:36;23.20;99.90
12632;DHT22;6381;45.748;12.106;2023-07-20T02:24:06;23.40;99.90
12632;DHT22;6381;45.748;12.106;2023-07-20T02:26:36;23.50;99.90
12632;DHT22;6381;45.748;12.106;2023-07-20T02:29:06;23.30;99.90
12632;DHT22;6381;45.748;12.106;2023-07-20T02:31:37;23.20;99.90
12632;DHT22;6381;45.748;12.106;2023-07-20T02:34:08;23.20;99.90
12632;DHT22;6381;45.748;12.106;2023-07-20T02:36:37;23.20;99.90
12632;DHT22;6381;45.748;12.106;2023-07-20T02:39:07;23.30;99.90
12632;DHT22;6381;45.748;12.106;2023-07-20T02:41:37;23.20;99.90
12632;DHT22;6381;45.748;12.106;2023-07-20T02:44:07;23.20;99.90
12632;DHT22;6381;45.748;12.106;2023-07-20T02:46:38;23.30;99.90
12632;DHT22;6381;45.748;12.106;2023-07-20T02:49:08;23.30;99.90
12632;DHT22;6381;45.748;12.106;2023-07-20T02:51:38;23.10;99.90
12632;DHT22;6381;45.748;12.106;2023-07-20T02:54:08;23.00;99.90
12632;DHT22;6381;45.748;12.106;2023-07-20T02:56:38;23.10;99.90
12632;DHT22;6381;45.748;12.106;2023-07-20T02:59:08;23.20;99.90
12632;DHT22;6381;45.748;12.106;2023-07-20T03:01:39;23.10;99.90
12632;DHT22;6381;45.748;12.106;2023-07-20T03:04:10;23.10;99.90
12632;DHT22;6381;45.748;12.106;2023-07-20T03:06:40;23.10;99.90
12632;DHT22;6381;45.748;12.106;2023-07-20T03:09:10;23.00;99.90
12632;DHT22;6381;45.748;12.106;2023-07-20T03:11:39;23.00;99.90
12632;DHT22;6381;45.748;12.106;2023-07-20T03:14:12;23.10;99.90
12632;DHT22;6381;45.748;12.106;2023-07-20T03:16:43;23.20;99.90
12632;DHT22;6381;45.748;12.106;2023-07-20T03:19:13;23.30;99.90
12632;DHT22;6381;45.748;12.106;2023-07-20T03:21:43;23.30;99.90
12632;DHT22;6381;45.748;12.106;2023-07-20T03:24:13;23.40;99.90
12632;DHT22;6381;45.748;12.106;2023-07-20T03:26:43;23.50;99.90
12632;DHT22;6381;45.748;12.106;2023-07-20T03:29:13;23.40;99.90
12632;DHT22;6381;45.748;12.106;2023-07-20T03:31:48;23.40;99.90
12632;DHT22;6381;45.748;12.106;2023-07-20T03:34:18;23.40;99.90
12632;DHT22;6381;45.748;12.106;2023-07-20T03:36:48;23.40;99.90
12632;DHT22;6381;45.748;12.106;2023-07-20T03:39:20;23.40;99.90
12632;DHT22;6381;45.748;12.106;2023-07-20T03:41:51;23.60;99.90
12632;DHT22;6381;45.748;12.106;2023-07-20T03:44:21;23.60;99.90
12632;DHT22;6381;45.748;12.106;2023-07-20T03:46:54;23.50;99.90
12632;DHT22;6381;45.748;12.106;2023-07-20T03:49:24;23.60;99.90
12632;DHT22;6381;45.748;12.106;2023-07-20T03:51:53;23.30;99.90
12632;DHT22;6381;45.748;12.106;2023-07-20T03:54:24;23.40;99.90
12632;DHT22;6381;45.748;12.106;2023-07-20T03:56:54;23.60;99.90
12632;DHT22;6381;45.748;12.106;2023-07-20T03:59:24;23.60;99.90
12632;DHT22;6381;45.748;12.106;2023-07-20T04:01:55;23.60;99.90
12632;DHT22;6381;45.748;12.106;2023-07-20T04:04:28;23.70;99.90
12632;DHT22;6381;45.748;12.106;2023-07-20T04:06:59;23.80;99.90
12632;DHT22;6381;45.748;12.106;2023-07-20T04:09:28;23.80;99.90
12632;DHT22;6381;45.748;12.106;2023-07-20T04:11:58;23.70;99.90
12632;DHT22;6381;45.748;12.106;2023-07-20T04:14:29;23.70;99.90
12632;DHT22;6381;45.748;12.106;2023-07-20T04:17:00;23.60;99.90
12632;DHT22;6381;45.748;12.106;2023-07-20T04:19:30;23.60;99.90
12632;DHT22;6381;45.748;12.106;2023-07-20T04:22:00;23.80;99.90
12632;DHT22;6381;45.748;12.106;2023-07-20T04:24:32;23.80;99.90
12632;DHT22;6381;45.748;12.106;2023-07-20T04:27:02;23.90;99.90
12632;DHT22;6381;45.748;12.106;2023-07-20T04:29:32;23.80;99.90
12632;DHT22;6381;45.748;12.106;2023-07-20T04:32:04;23.80;99.90
12632;DHT22;6381;45.748;12.106;2023-07-20T04:34:36;23.90;99.90
12632;DHT22;6381;45.748;12.106;2023-07-20T04:37:06;23.90;99.90
12632;DHT22;6381;45.748;12.106;2023-07-20T04:39:36;23.90;99.90
12632;DHT22;6381;45.748;12.106;2023-07-20T04:42:10;23.90;99.90
12632;DHT22;6381;45.748;12.106;2023-07-20T04:44:40;24.00;99.90
12632;DHT22;6381;45.748;12.106;2023-07-20T04:47:12;23.90;99.90
12632;DHT22;6381;45.748;12.106;2023-07-20T04:49:41;23.90;99.90
12632;DHT22;6381;45.748;12.106;2023-07-20T04:52:11;23.90;99.90
12632;DHT22;6381;45.748;12.106;2023-07-20T04:54:42;24.00;99.90
12632;DHT22;6381;45.748;12.106;2023-07-20T04:57:13;24.20;99.90
12632;DHT22;6381;45.748;12.106;2023-07-20T04:59:48;24.20;99.90
12632;DHT22;6381;45.748;12.106;2023-07-20T05:02:20;24.10;99.90
12632;DHT22;6381;45.748;12.106;2023-07-20T05:04:50;24.10;99.90
12632;DHT22;6381;45.748;12.106;2023-07-20T05:07:19;24.20;99.90
12632;DHT22;6381;45.748;12.106;2023-07-20T05:09:50;24.10;99.90
12632;DHT22;6381;45.748;12.106;2023-07-20T05:12:20;24.00;99.90
12632;DHT22;6381;45.748;12.106;2023-07-20T05:14:50;24.20;99.90
12632;DHT22;6381;45.748;12.106;2023-07-20T05:17:22;24.10;99.90
12632;DHT22;6381;45.748;12.106;2023-07-20T05:19:53;24.20;99.90
12632;DHT22;6381;45.748;12.106;2023-07-20T05:22:23;24.30;99.90
12632;DHT22;6381;45.748;12.106;2023-07-20T05:24:52;24.60;99.90
12632;DHT22;6381;45.748;12.106;2023-07-20T05:27:22;24.70;99.90
12632;DHT22;6381;45.748;12.106;2023-07-20T05:29:52;24.60;99.90
12632;DHT22;6381;45.748;12.106;2023-07-20T05:32:23;24.60;99.70
12632;DHT22;6381;45.748;12.106;2023-07-20T05:34:53;24.70;99.90
12632;DHT22;6381;45.748;12.106;2023-07-20T05:37:23;24.70;99.00
12632;DHT22;6381;45.748;12.106;2023-07-20T05:39:53;24.80;99.30
12632;DHT22;6381;45.748;12.106;2023-07-20T05:42:23;24.80;99.10
12632;DHT22;6381;45.748;12.106;2023-07-20T05:44:52;24.90;98.90
12632;DHT22;6381;45.748;12.106;2023-07-20T05:47:24;24.90;98.60
12632;DHT22;6381;45.748;12.106;2023-07-20T05:49:54;25.10;98.50
12632;DHT22;6381;45.748;12.106;2023-07-20T05:52:26;25.10;98.00
12632;DHT22;6381;45.748;12.106;2023-07-20T05:54:57;25.40;98.70
12632;DHT22;6381;45.748;12.106;2023-07-20T05:57:27;25.50;99.00
12632;DHT22;6381;45.748;12.106;2023-07-20T05:59:57;25.60;98.70
12632;DHT22;6381;45.748;12.106;2023-07-20T06:02:29;25.70;98.10
12632;DHT22;6381;45.748;12.106;2023-07-20T06:05:01;25.80;98.40
12632;DHT22;6381;45.748;12.106;2023-07-20T06:07:30;25.90;98.00
12632;DHT22;6381;45.748;12.106;2023-07-20T06:10:01;25.90;98.40
12632;DHT22;6381;45.748;12.106;2023-07-20T06:12:30;25.70;99.00
12632;DHT22;6381;45.748;12.106;2023-07-20T06:15:03;25.60;99.30
12632;DHT22;6381;45.748;12.106;2023-07-20T06:17:34;25.60;98.40
12632;DHT22;6381;45.748;12.106;2023-07-20T06:20:08;25.80;98.10
12632;DHT22;6381;45.748;12.106;2023-07-20T06:22:38;26.00;98.60
12632;DHT22;6381;45.748;12.106;2023-07-20T06:25:08;26.10;98.30
12632;DHT22;6381;45.748;12.106;2023-07-20T06:27:39;26.10;98.20
12632;DHT22;6381;45.748;12.106;2023-07-20T06:30:09;26.20;98.10
12632;DHT22;6381;45.748;12.106;2023-07-20T06:32:42;26.40;98.30
12632;DHT22;6381;45.748;12.106;2023-07-20T06:35:11;26.50;98.20
12632;DHT22;6381;45.748;12.106;2023-07-20T06:37:42;26.60;96.10
12632;DHT22;6381;45.748;12.106;2023-07-20T06:40:12;26.50;95.20
12632;DHT22;6381;45.748;12.106;2023-07-20T06:42:45;26.50;94.70
12632;DHT22;6381;45.748;12.106;2023-07-20T06:45:18;26.50;93.50
12632;DHT22;6381;45.748;12.106;2023-07-20T06:47:51;26.60;93.80
12632;DHT22;6381;45.748;12.106;2023-07-20T06:50:21;26.50;93.50
12632;DHT22;6381;45.748;12.106;2023-07-20T06:52:54;26.60;93.30
12632;DHT22;6381;45.748;12.106;2023-07-20T06:55:26;26.60;93.90
12632;DHT22;6381;45.748;12.106;2023-07-20T06:58:01;26.60;93.90
12632;DHT22;6381;45.748;12.106;2023-07-20T07:00:36;26.70;93.90
12632;DHT22;6381;45.748;12.106;2023-07-20T07:03:08;26.50;94.50
12632;DHT22;6381;45.748;12.106;2023-07-20T07:05:37;26.70;94.50
12632;DHT22;6381;45.748;12.106;2023-07-20T07:08:08;26.80;94.60
12632;DHT22;6381;45.748;12.106;2023-07-20T07:10:37;26.80;93.60
12632;DHT22;6381;45.748;12.106;2023-07-20T07:13:07;26.80;94.20
12632;DHT22;6381;45.748;12.106;2023-07-20T07:15:37;26.80;93.60
12632;DHT22;6381;45.748;12.106;2023-07-20T07:18:10;26.70;93.20
12632;DHT22;6381;45.748;12.106;2023-07-20T07:20:50;26.90;94.40
12632;DHT22;6381;45.748;12.106;2023-07-20T07:23:20;27.00;94.90
12632;DHT22;6381;45.748;12.106;2023-07-20T07:25:52;27.00;93.30
12632;DHT22;6381;45.748;12.106;2023-07-20T07:28:21;27.00;93.90
12632;DHT22;6381;45.748;12.106;2023-07-20T07:30:51;27.30;93.20
12632;DHT22;6381;45.748;12.106;2023-07-20T07:33:22;27.30;92.50
12632;DHT22;6381;45.748;12.106;2023-07-20T07:35:54;27.40;92.80
12632;DHT22;6381;45.748;12.106;2023-07-20T07:38:26;27.50;92.90
12632;DHT22;6381;45.748;12.106;2023-07-20T07:41:16;27.60;91.80
12632;DHT22;6381;45.748;12.106;2023-07-20T07:43:46;27.50;91.00
12632;DHT22;6381;45.748;12.106;2023-07-20T07:46:16;27.50;89.90
12632;DHT22;6381;45.748;12.106;2023-07-20T07:48:47;27.60;90.50
12632;DHT22;6381;45.748;12.106;2023-07-20T07:51:17;27.50;90.30
12632;DHT22;6381;45.748;12.106;2023-07-20T07:53:47;27.40;90.30
12632;DHT22;6381;45.748;12.106;2023-07-20T07:56:18;27.50;91.10
12632;DHT22;6381;45.748;12.106;2023-07-20T07:58:52;27.70;91.30
12632;DHT22;6381;45.748;12.106;2023-07-20T08:01:22;27.60;91.60
12632;DHT22;6381;45.748;12.106;2023-07-20T08:03:53;27.80;91.80
12632;DHT22;6381;45.748;12.106;2023-07-20T08:06:23;28.00;90.30
12632;DHT22;6381;45.748;12.106;2023-07-20T08:08:54;28.00;90.00
12632;DHT22;6381;45.748;12.106;2023-07-20T08:11:24;28.10;92.40
12632;DHT22;6381;45.748;12.106;2023-07-20T08:13:54;28.10;90.80
12632;DHT22;6381;45.748;12.106;2023-07-20T08:16:24;28.30;92.50
12632;DHT22;6381;45.748;12.106;2023-07-20T08:18:57;28.50;90.40
12632;DHT22;6381;45.748;12.106;2023-07-20T08:21:28;28.50;90.10
12632;DHT22;6381;45.748;12.106;2023-07-20T08:23:57;28.50;90.30
12632;DHT22;6381;45.748;12.106;2023-07-20T08:26:27;28.50;87.20
12632;DHT22;6381;45.748;12.106;2023-07-20T08:28:57;28.70;90.90
12632;DHT22;6381;45.748;12.106;2023-07-20T08:31:27;28.50;90.00
12632;DHT22;6381;45.748;12.106;2023-07-20T08:33:59;28.40;88.70
12632;DHT22;6381;45.748;12.106;2023-07-20T08:36:43;28.60;89.30
12632;DHT22;6381;45.748;12.106;2023-07-20T08:39:12;28.80;88.00
12632;DHT22;6381;45.748;12.106;2023-07-20T08:41:43;28.80;88.30
12632;DHT22;6381;45.748;12.106;2023-07-20T08:44:13;28.90;85.00
12632;DHT22;6381;45.748;12.106;2023-07-20T08:46:44;29.00;86.20
12632;DHT22;6381;45.748;12.106;2023-07-20T08:49:17;29.00;80.20
12632;DHT22;6381;45.748;12.106;2023-07-20T08:51:47;28.90;83.80
12632;DHT22;6381;45.748;12.106;2023-07-20T08:54:18;28.90;85.80
12632;DHT22;6381;45.748;12.106;2023-07-20T08:56:47;29.10;82.50
12632;DHT22;6381;45.748;12.106;2023-07-20T08:59:17;29.20;86.60
12632;DHT22;6381;45.748;12.106;2023-07-20T09:01:47;29.10;86.20
12632;DHT22;6381;45.748;12.106;2023-07-20T09:04:19;29.30;87.50
12632;DHT22;6381;45.748;12.106;2023-07-20T09:06:50;29.40;87.00
12632;DHT22;6381;45.748;12.106;2023-07-20T09:09:19;29.50;85.90
12632;DHT22;6381;45.748;12.106;2023-07-20T09:11:50;29.50;87.20
12632;DHT22;6381;45.748;12.106;2023-07-20T09:14:23;29.50;81.40
12632;DHT22;6381;45.748;12.106;2023-07-20T09:16:54;29.60;81.50
12632;DHT22;6381;45.748;12.106;2023-07-20T09:19:25;29.60;78.60
12632;DHT22;6381;45.748;12.106;2023-07-20T09:21:56;29.60;76.10
12632;DHT22;6381;45.748;12.106;2023-07-20T09:24:29;29.80;78.70
12632;DHT22;6381;45.748;12.106;2023-07-20T09:27:01;29.90;75.30
12632;DHT22;6381;45.748;12.106;2023-07-20T09:29:32;29.60;74.80
12632;DHT22;6381;45.748;12.106;2023-07-20T09:32:04;29.60;73.00
12632;DHT22;6381;45.748;12.106;2023-07-20T09:34:52;29.70;75.30
12632;DHT22;6381;45.748;12.106;2023-07-20T09:37:22;29.80;76.40
12632;DHT22;6381;45.748;12.106;2023-07-20T09:39:53;30.00;72.90
12632;DHT22;6381;45.748;12.106;2023-07-20T09:42:26;30.30;77.10
12632;DHT22;6381;45.748;12.106;2023-07-20T09:45:00;30.10;74.00
12632;DHT22;6381;45.748;12.106;2023-07-20T09:47:30;30.20;77.90
12632;DHT22;6381;45.748;12.106;2023-07-20T09:50:03;30.40;75.40
12632;DHT22;6381;45.748;12.106;2023-07-20T09:52:42;30.50;72.10
12632;DHT22;6381;45.748;12.106;2023-07-20T09:55:16;30.30;71.60
12632;DHT22;6381;45.748;12.106;2023-07-20T09:57:47;30.30;69.70
12632;DHT22;6381;45.748;12.106;2023-07-20T10:00:18;30.60;72.00
12632;DHT22;6381;45.748;12.106;2023-07-20T10:02:52;30.70;69.50
12632;DHT22;6381;45.748;12.106;2023-07-20T10:05:25;30.80;65.90
12632;DHT22;6381;45.748;12.106;2023-07-20T10:07:59;30.90;67.10
12632;DHT22;6381;45.748;12.106;2023-07-20T10:10:35;30.80;66.90
12632;DHT22;6381;45.748;12.106;2023-07-20T10:13:06;30.80;64.00
12632;DHT22;6381;45.748;12.106;2023-07-20T10:15:42;30.90;64.50
12632;DHT22;6381;45.748;12.106;2023-07-20T10:18:20;31.10;64.70
12632;DHT22;6381;45.748;12.106;2023-07-20T10:20:54;31.10;62.30
12632;DHT22;6381;45.748;12.106;2023-07-20T10:23:29;31.20;68.30
12632;DHT22;6381;45.748;12.106;2023-07-20T10:25:59;31.30;66.20
12632;DHT22;6381;45.748;12.106;2023-07-20T10:28:30;31.20;63.20
12632;DHT22;6381;45.748;12.106;2023-07-20T10:31:00;31.10;61.00
12632;DHT22;6381;45.748;12.106;2023-07-20T10:33:31;31.10;59.90
12632;DHT22;6381;45.748;12.106;2023-07-20T10:36:03;31.20;63.80
12632;DHT22;6381;45.748;12.106;2023-07-20T10:38:41;31.30;63.70
12632;DHT22;6381;45.748;12.106;2023-07-20T10:41:19;31.70;64.20
12632;DHT22;6381;45.748;12.106;2023-07-20T10:43:49;31.80;61.40
12632;DHT22;6381;45.748;12.106;2023-07-20T10:46:34;31.80;60.30
12632;DHT22;6381;45.748;12.106;2023-07-20T10:49:06;31.80;57.70
12632;DHT22;6381;45.748;12.106;2023-07-20T10:51:41;32.00;59.10
12632;DHT22;6381;45.748;12.106;2023-07-20T10:54:46;31.90;55.20
12632;DHT22;6381;45.748;12.106;2023-07-20T10:57:24;32.10;52.70
12632;DHT22;6381;45.748;12.106;2023-07-20T11:00:11;32.10;57.70
12632;DHT22;6381;45.748;12.106;2023-07-20T11:02:45;32.10;54.10
12632;DHT22;6381;45.748;12.106;2023-07-20T11:05:37;32.10;55.40
12632;DHT22;6381;45.748;12.106;2023-07-20T11:08:13;32.40;54.80
12632;DHT22;6381;45.748;12.106;2023-07-20T11:11:21;32.20;55.60
12632;DHT22;6381;45.748;12.106;2023-07-20T11:13:59;32.40;56.10
12632;DHT22;6381;45.748;12.106;2023-07-20T11:16:37;32.10;55.60
12632;DHT22;6381;45.748;12.106;2023-07-20T11:19:14;32.50;58.90
12632;DHT22;6381;45.748;12.106;2023-07-20T11:21:50;32.70;55.90
12632;DHT22;6381;45.748;12.106;2023-07-20T11:24:32;32.60;53.90
12632;DHT22;6381;45.748;12.106;2023-07-20T11:27:02;32.60;55.40
12632;DHT22;6381;45.748;12.106;2023-07-20T11:29:32;32.90;57.20
12632;DHT22;6381;45.748;12.106;2023-07-20T11:32:03;32.70;53.70
12632;DHT22;6381;45.748;12.106;2023-07-20T11:34:34;32.80;53.00
12632;DHT22;6381;45.748;12.106;2023-07-20T11:37:06;32.90;55.10
12632;DHT22;6381;45.748;12.106;2023-07-20T11:39:40;32.90;52.10
12632;DHT22;6381;45.748;12.106;2023-07-20T11:42:11;33.00;54.50
12632;DHT22;6381;45.748;12.106;2023-07-20T11:45:02;33.00;55.20
12632;DHT22;6381;45.748;12.106;2023-07-20T11:47:33;33.20;53.20
12632;DHT22;6381;45.748;12.106;2023-07-20T11:50:04;33.30;53.00
12632;DHT22;6381;45.748;12.106;2023-07-20T11:52:35;33.50;55.20
12632;DHT22;6381;45.748;12.106;2023-07-20T11:55:08;33.50;51.20
12632;DHT22;6381;45.748;12.106;2023-07-20T11:57:38;33.60;51.60
12632;DHT22;6381;45.748;12.106;2023-07-20T12:00:09;33.60;52.00
12632;DHT22;6381;45.748;12.106;2023-07-20T12:02:45;33.30;53.70
12632;DHT22;6381;45.748;12.106;2023-07-20T12:05:16;33.50;53.60
12632;DHT22;6381;45.748;12.106;2023-07-20T12:07:45;33.60;52.30
12632;DHT22;6381;45.748;12.106;2023-07-20T12:10:26;33.60;52.70
12632;DHT22;6381;45.748;12.106;2023-07-20T12:13:02;33.70;53.40
12632;DHT22;6381;45.748;12.106;2023-07-20T12:15:32;33.80;52.70
12632;DHT22;6381;45.748;12.106;2023-07-20T12:18:03;33.80;49.60
12632;DHT22;6381;45.748;12.106;2023-07-20T12:20:34;34.00;54.30
12632;DHT22;6381;45.748;12.106;2023-07-20T12:23:08;34.10;55.40
12632;DHT22;6381;45.748;12.106;2023-07-20T12:25:40;34.00;52.60
12632;DHT22;6381;45.748;12.106;2023-07-20T12:28:12;34.20;53.10
12632;DHT22;6381;45.748;12.106;2023-07-20T12:30:43;34.30;51.00
12632;DHT22;6381;45.748;12.106;2023-07-20T12:33:13;34.40;51.40
12632;DHT22;6381;45.748;12.106;2023-07-20T12:35:45;34.50;49.90
12632;DHT22;6381;45.748;12.106;2023-07-20T12:38:16;34.30;50.70
12632;DHT22;6381;45.748;12.106;2023-07-20T12:40:48;34.50;51.10
12632;DHT22;6381;45.748;12.106;2023-07-20T12:43:18;34.30;49.90
12632;DHT22;6381;45.748;12.106;2023-07-20T12:45:48;34.30;52.20
12632;DHT22;6381;45.748;12.106;2023-07-20T12:48:18;34.60;52.60
12632;DHT22;6381;45.748;12.106;2023-07-20T12:50:48;34.70;47.00
12632;DHT22;6381;45.748;12.106;2023-07-20T12:53:20;34.50;48.00
12632;DHT22;6381;45.748;12.106;2023-07-20T12:55:51;34.60;48.70
12632;DHT22;6381;45.748;12.106;2023-07-20T12:58:21;35.00;44.80
12632;DHT22;6381;45.748;12.106;2023-07-20T13:00:51;35.40;43.50
12632;DHT22;6381;45.748;12.106;2023-07-20T13:03:22;35.40;45.10
12632;DHT22;6381;45.748;12.106;2023-07-20T13:05:55;35.10;48.00
12632;DHT22;6381;45.748;12.106;2023-07-20T13:08:27;35.10;43.60
12632;DHT22;6381;45.748;12.106;2023-07-20T13:10:59;35.70;45.30
12632;DHT22;6381;45.748;12.106;2023-07-20T13:13:29;35.30;45.00
12632;DHT22;6381;45.748;12.106;2023-07-20T13:15:59;35.40;46.10
12632;DHT22;6381;45.748;12.106;2023-07-20T13:18:29;35.60;43.80
12632;DHT22;6381;45.748;12.106;2023-07-20T13:21:00;35.80;46.40
12632;DHT22;6381;45.748;12.106;2023-07-20T13:23:30;35.70;45.10
12632;DHT22;6381;45.748;12.106;2023-07-20T13:26:02;35.80;46.40
12632;DHT22;6381;45.748;12.106;2023-07-20T13:28:32;35.80;44.50
12632;DHT22;6381;45.748;12.106;2023-07-20T13:31:03;35.70;42.60
12632;DHT22;6381;45.748;12.106;2023-07-20T13:33:33;35.80;41.20
12632;DHT22;6381;45.748;12.106;2023-07-20T13:36:07;36.20;44.50
12632;DHT22;6381;45.748;12.106;2023-07-20T13:38:37;36.10;43.50
12632;DHT22;6381;45.748;12.106;2023-07-20T13:41:08;36.20;43.30
12632;DHT22;6381;45.748;12.106;2023-07-20T13:43:38;36.10;41.30
12632;DHT22;6381;45.748;12.106;2023-07-20T13:46:08;35.90;42.20
12632;DHT22;6381;45.748;12.106;2023-07-20T13:48:43;36.30;42.00
12632;DHT22;6381;45.748;12.106;2023-07-20T13:51:14;36.10;41.30
12632;DHT22;6381;45.748;12.106;2023-07-20T13:53:54;36.20;41.40
12632;DHT22;6381;45.748;12.106;2023-07-20T13:56:25;37.00;43.10
12632;DHT22;6381;45.748;12.106;2023-07-20T13:58:58;37.20;44.40
12632;DHT22;6381;45.748;12.106;2023-07-20T14:01:39;37.60;41.60
12632;DHT22;6381;45.748;12.106;2023-07-20T14:04:12;37.60;40.60
12632;DHT22;6381;45.748;12.106;2023-07-20T14:06:47;37.40;40.00
12632;DHT22;6381;45.748;12.106;2023-07-20T14:09:18;37.10;39.00
12632;DHT22;6381;45.748;12.106;2023-07-20T14:11:50;37.40;38.40
12632;DHT22;6381;45.748;12.106;2023-07-20T14:14:23;36.90;40.30
12632;DHT22;6381;45.748;12.106;2023-07-20T14:16:53;37.00;41.50
12632;DHT22;6381;45.748;12.106;2023-07-20T14:19:23;36.90;39.10
12632;DHT22;6381;45.748;12.106;2023-07-20T14:21:53;37.60;39.30
12632;DHT22;6381;45.748;12.106;2023-07-20T14:24:23;36.20;36.20
12632;DHT22;6381;45.748;12.106;2023-07-20T14:26:54;36.50;38.50
12632;DHT22;6381;45.748;12.106;2023-07-20T14:29:24;36.90;40.20
12632;DHT22;6381;45.748;12.106;2023-07-20T14:31:54;37.20;38.20
12632;DHT22;6381;45.748;12.106;2023-07-20T14:34:25;37.40;38.80
12632;DHT22;6381;45.748;12.106;2023-07-20T14:36:54;37.30;36.50
12632;DHT22;6381;45.748;12.106;2023-07-20T14:39:24;37.50;38.70
12632;DHT22;6381;45.748;12.106;2023-07-20T14:41:55;37.20;38.70
12632;DHT22;6381;45.748;12.106;2023-07-20T14:44:25;37.40;40.20
12632;DHT22;6381;45.748;12.106;2023-07-20T14:46:55;37.30;39.10
12632;DHT22;6381;45.748;12.106;2023-07-20T14:49:39;37.70;38.90
12632;DHT22;6381;45.748;12.106;2023-07-20T14:52:09;38.30;39.80
12632;DHT22;6381;45.748;12.106;2023-07-20T14:54:43;38.20;37.40
12632;DHT22;6381;45.748;12.106;2023-07-20T14:57:14;38.60;37.70
12632;DHT22;6381;45.748;12.106;2023-07-20T14:59:44;39.00;37.10
12632;DHT22;6381;45.748;12.106;2023-07-20T15:02:14;39.10;36.90
12632;DHT22;6381;45.748;12.106;2023-07-20T15:04:48;38.90;36.60
12632;DHT22;6381;45.748;12.106;2023-07-20T15:07:20;38.50;35.30
12632;DHT22;6381;45.748;12.106;2023-07-20T15:09:50;39.00;36.50
12632;DHT22;6381;45.748;12.106;2023-07-20T15:12:22;39.00;34.40
12632;DHT22;6381;45.748;12.106;2023-07-20T15:15:04;39.00;32.80
12632;DHT22;6381;45.748;12.106;2023-07-20T15:17:35;38.20;34.90
12632;DHT22;6381;45.748;12.106;2023-07-20T15:20:08;38.10;34.90
12632;DHT22;6381;45.748;12.106;2023-07-20T15:22:38;38.30;35.20
12632;DHT22;6381;45.748;12.106;2023-07-20T15:25:09;38.80;33.90
12632;DHT22;6381;45.748;12.106;2023-07-20T15:27:41;38.60;34.70
12632;DHT22;6381;45.748;12.106;2023-07-20T15:30:17;38.70;34.70
12632;DHT22;6381;45.748;12.106;2023-07-20T15:32:50;39.10;34.60
12632;DHT22;6381;45.748;12.106;2023-07-20T15:35:23;39.30;32.50
12632;DHT22;6381;45.748;12.106;2023-07-20T15:37:52;39.50;33.90
12632;DHT22;6381;45.748;12.106;2023-07-20T15:40:22;39.10;33.30
12632;DHT22;6381;45.748;12.106;2023-07-20T15:42:54;38.90;34.20
12632;DHT22;6381;45.748;12.106;2023-07-20T15:45:24;38.50;34.80
12632;DHT22;6381;45.748;12.106;2023-07-20T15:47:54;37.60;31.90
12632;DHT22;6381;45.748;12.106;2023-07-20T15:50:24;38.70;32.90
12632;DHT22;6381;45.748;12.106;2023-07-20T15:52:54;39.10;33.00
12632;DHT22;6381;45.748;12.106;2023-07-20T15:55:25;39.30;33.50
12632;DHT22;6381;45.748;12.106;2023-07-20T15:57:57;39.00;33.10
12632;DHT22;6381;45.748;12.106;2023-07-20T16:00:27;38.90;32.90
12632;DHT22;6381;45.748;12.106;2023-07-20T16:02:58;39.30;33.80